Aviation Digital Data Service (ADDS)

Output produced by METARs form (0118 UTC 16 January 2019)
found at http://www.aviationweather.gov/metar/data/
 
WBGB 160100Z VRB03KT 9999 FEW016 BKN150 26/25 Q1010
TAF WBGB 152300Z 1600/1700 VRB03KT 9999 FEW015
       
WMKB 160100Z 06003KT 030V100 8000 FEW020 SCT140 BKN280 25/22 Q1011 NOSIG
TAF WMKB 152300Z 1600/1700 VRB03KT 8000 FEW020 
     BECMG 1605/1607 30010KT 
     BECMG 1614/1616 08005KT FEW025
       
WMKE 160100Z VRB03KT 8000 FEW003 SCT015 BKN140 25/24 Q1011
TAF WMKE 152300Z 1600/1700 VRB04KT 9999 FEW014 BKN260
       
TAF WMAP 152300Z 1600/1700 34005KT 9999 FEW018 
     BECMG 1602/1604 05007KT 
     BECMG 1605/1606 01006KT 
     BECMG 1613/1615 VRB02KT FEW028
       
WBKK 160100Z VRB02KT 9999 FEW015 BKN280 29/25 Q1010 NOSIG
TAF WBKK 152300Z 1600/1700 VRB02KT 9999 FEW014 
     TEMPO 1606/1610 25008KT 5000 TSRA FEW015CB SCT035
       
WMKK 160100Z VRB02KT 9999 FEW017CB SCT140 BKN280 26/24 Q1011 NOSIG
TAF WMKK 152300Z 1600/1706 VRB02KT 9999 FEW017CB 
     BECMG 1600/1602 16005KT 9999 FEW018 
     PROB30 
     TEMPO 1608/1612 25005KT 4000 TSRA FEW017CB SCT018 
     BECMG 1612/1614 VRB01KT FEW030 
     BECMG 1616/1618 04005KT 7000 FEW017CB 
     BECMG 1700/1702 9999 FEW018
       
WMKD 160100Z VRB03KT 9999 FEW019 BKN280 26/23 Q1011 NOSIG
WBGG 160100Z VRB02KT 9999 FEW012 SCT150 BKN300 28/24 Q1010 NOSIG
TAF WBGG 152300Z 1600/1700 VRB04KT 9999 FEW015 SCT020 
     TEMPO 1606/1609 4000 TSRA FEW015CB
       
WBKL 160100Z 05004KT 340V090 9999 FEW012 BKN300 28/26 Q1011
TAF WBKL 152300Z 1600/1700 34005KT 9999 FEW010 
     PROB30 
     TEMPO 1610/1614 07005KT 5000 TSRA FEW013CB SCT040
       
WMKL 160100Z VRB01KT 9999 FEW020 BKN280 27/23 Q1011
TAF WMKL 152300Z 1600/1700 05005KT 9999 FEW022 BKN280
       
WMKM 160100Z 05003KT 010V110 9999 FEW017CB BKN140 26/24 Q1012
TAF WMKM 152300Z 1600/1700 06005KT 9999 FEW020 
     BECMG 1604/1606 12007KT 
     PROB30 
     TEMPO 1608/1612 4000 TSRA FEW017CB SCT018 
     BECMG 1611/1613 VRB02KT FEW030 
     BECMG 1617/1619 05005KT FEW017CB
       
WBGR 160100Z 12005KT 080V190 9999 FEW015CB BKN150 26/24 Q1010
TAF WBGR 152300Z 1600/1700 VRB04KT 9999 FEW015
       
WMKP 160100Z 03005KT 350V070 8000 FEW020 SCT140 BKN270 27/22 Q1011 NOSIG
TAF WMKP 152300Z 1600/1700 04005KT 8000 FEW020 SCT140 BKN270 
     BECMG 1604/1606 22010KT 9000 
     BECMG 1611/1613 VRB02KT
       
TAF WMBT 152300Z 1600/1700 36005KT 8000 -RA FEW010 
     BECMG 1612/1614 9999 FEW020
       
WBKS 160100Z 06011KT 020V100 9999 SCT015 BKN290 29/24 Q1011
TAF WBKS 152300Z 1600/1700 02008KT 9999 FEW010 SCT040 
     TEMPO 1600/1604 5000 -RA FEW008
       
WBGS 160100Z 13003KT 100V160 9999 FEW015CB BKN150 27/25 Q1010
TAF WBGS 152300Z 1600/1700 19005KT 9999 FEW015 SCT019 
     TEMPO 1607/1610 4000 TSRA FEW015CB
       
WMSA 160100Z VRB02KT 7000 FEW017CB SCT140 BKN270 27/25 Q1011
TAF WMSA 152300Z 1600/1700 VRB02KT 9999 FEW017CB 
     PROB30 
     TEMPO 1608/1612 28006KT 3000 TSRA FEW016CB SCT018 
     BECMG 1612/1614 VRB02KT FEW024 
     BECMG 1615/1617 7000 FEW017CB 
     BECMG 1622/1700 9000
       
WMKA 160100Z VRB02KT 9999 FEW020 BKN300 26/24 Q1011
TAF WMKA 152300Z 1600/1700 05005KT 9999 FEW020 BKN300
       
WMKI 160100Z 03005KT 360V070 9999 FEW017CB BKN280 26/22 Q1012
TAF WMKI 152300Z 1600/1700 03005KT 9999 FEW020 
     PROB30 
     TEMPO 1607/1611 30010KT 5000 TSRA FEW017CB
       
WMKJ 160100Z VRB02KT 9999 FEW018 BKN300 27/24 Q1010
TAF WMKJ 152300Z 1600/1700 VRB03KT 9999 FEW018 
     BECMG 1610/1612 04006KT FEW023 
     BECMG 1622/1700 VRB02KT FEW018
       
WMKC 160100Z 00000KT 9999 -RA FEW010 SCT020 BKN280 25/23 Q1012
TAF WMKC 152300Z 1600/1700 06007KT 9999 FEW020 BKN280 
     TEMPO 1600/1602 7000 -RA FEW010 SCT018 BKN140 
     PROB30 
     TEMPO 1607/1610 7000 -RA FEW010 SCT018 OVC140
       
WMKN 160100Z 02015KT 350V050 8000 -RA FEW008 SCT020 BKN150 26/25 Q1012
TAF WMKN 152300Z 1600/1700 07006KT 9999 FEW020 BKN300 
     TEMPO 1600/1602 7000 -RA FEW010 SCT018 BKN140 
     PROB30 
     TEMPO 1607/1610 7000 -RA FEW010 SCT018 OVC140
       
WBKW 160100Z VRB02KT 9999 FEW017 BKN140 26/24 Q1011
TAF WBKW 152300Z 1600/1700 VRB03KT 9999 FEW017 
     TEMPO 1607/1611 07010KT 3000 TSRA FEW010 FEW015CB SCT027